sensor_id;sensor_type;location;lat;lon;timestamp;P1;durP1;ratioP1;P2;durP2;ratioP2
66400;SDS011;53211;45.040;38.788;2022-11-20T00:01:05;737.38;;;138.57;;
66400;SDS011;53211;45.040;38.788;2022-11-20T00:03:35;749.30;;;143.40;;
66400;SDS011;53211;45.040;38.788;2022-11-20T00:06:02;749.03;;;145.60;;
66400;SDS011;53211;45.040;38.788;2022-11-20T00:08:29;748.33;;;147.07;;
66400;SDS011;53211;45.040;38.788;2022-11-20T00:10:55;743.65;;;144.55;;
66400;SDS011;53211;45.040;38.788;2022-11-20T00:13:21;734.20;;;147.65;;
66400;SDS011;53211;45.040;38.788;2022-11-20T00:15:47;738.15;;;148.50;;
66400;SDS011;53211;45.040;38.788;2022-11-20T00:18:13;718.50;;;148.85;;
66400;SDS011;53211;45.040;38.788;2022-11-20T00:20:39;737.10;;;147.85;;
66400;SDS011;53211;45.040;38.788;2022-11-20T00:23:05;719.15;;;148.15;;
66400;SDS011;53211;45.040;38.788;2022-11-20T00:25:33;733.60;;;148.20;;
66400;SDS011;53211;45.040;38.788;2022-11-20T00:28:00;730.93;;;151.07;;
66400;SDS011;53211;45.040;38.788;2022-11-20T00:30:26;733.73;;;147.90;;
66400;SDS011;53211;45.040;38.788;2022-11-20T00:32:52;728.00;;;147.50;;
66400;SDS011;53211;45.040;38.788;2022-11-20T00:35:18;736.80;;;151.30;;
66400;SDS011;53211;45.040;38.788;2022-11-20T00:37:44;738.55;;;146.55;;
66400;SDS011;53211;45.040;38.788;2022-11-20T00:40:10;736.57;;;152.77;;
66400;SDS011;53211;45.040;38.788;2022-11-20T00:42:36;707.30;;;150.50;;
66400;SDS011;53211;45.040;38.788;2022-11-20T00:45:02;714.25;;;148.75;;
66400;SDS011;53211;45.040;38.788;2022-11-20T00:47:29;714.20;;;148.95;;
66400;SDS011;53211;45.040;38.788;2022-11-20T00:49:55;705.45;;;146.90;;
66400;SDS011;53211;45.040;38.788;2022-11-20T00:52:21;704.37;;;148.83;;
66400;SDS011;53211;45.040;38.788;2022-11-20T00:54:47;721.40;;;148.10;;
66400;SDS011;53211;45.040;38.788;2022-11-20T00:57:13;707.20;;;148.60;;
66400;SDS011;53211;45.040;38.788;2022-11-20T00:59:38;712.70;;;148.10;;
66400;SDS011;53211;45.040;38.788;2022-11-20T01:02:04;710.47;;;146.83;;
66400;SDS011;53211;45.040;38.788;2022-11-20T01:04:30;707.97;;;149.30;;
66400;SDS011;53211;45.040;38.788;2022-11-20T01:06:56;731.70;;;146.95;;
66400;SDS011;53211;45.040;38.788;2022-11-20T01:09:22;713.30;;;153.10;;
66400;SDS011;53211;45.040;38.788;2022-11-20T01:11:48;708.85;;;149.20;;
66400;SDS011;53211;45.040;38.788;2022-11-20T01:14:15;707.80;;;148.30;;
66400;SDS011;53211;45.040;38.788;2022-11-20T01:16:45;710.45;;;148.30;;
66400;SDS011;53211;45.040;38.788;2022-11-20T01:19:16;725.35;;;147.80;;
66400;SDS011;53211;45.040;38.788;2022-11-20T01:21:45;699.40;;;150.30;;
66400;SDS011;53211;45.040;38.788;2022-11-20T01:24:14;683.40;;;152.10;;
66400;SDS011;53211;45.040;38.788;2022-11-20T01:26:42;671.40;;;150.95;;
66400;SDS011;53211;45.040;38.788;2022-11-20T01:29:13;673.70;;;156.53;;
66400;SDS011;53211;45.040;38.788;2022-11-20T01:31:42;666.10;;;155.60;;
66400;SDS011;53211;45.040;38.788;2022-11-20T01:34:12;704.37;;;148.63;;
66400;SDS011;53211;45.040;38.788;2022-11-20T01:36:39;715.60;;;146.35;;
66400;SDS011;53211;45.040;38.788;2022-11-20T01:39:25;692.40;;;149.27;;
66400;SDS011;53211;45.040;38.788;2022-11-20T01:41:52;670.20;;;155.40;;
66400;SDS011;53211;45.040;38.788;2022-11-20T01:47:25;663.90;;;154.60;;
66400;SDS011;53211;45.040;38.788;2022-11-20T01:50:05;670.55;;;153.30;;
66400;SDS011;53211;45.040;38.788;2022-11-20T01:52:44;665.50;;;153.10;;
66400;SDS011;53211;45.040;38.788;2022-11-20T01:55:17;685.97;;;151.63;;
66400;SDS011;53211;45.040;38.788;2022-11-20T01:57:50;685.90;;;153.48;;
66400;SDS011;53211;45.040;38.788;2022-11-20T02:00:18;675.10;;;153.90;;
66400;SDS011;53211;45.040;38.788;2022-11-20T02:02:50;691.70;;;150.35;;
66400;SDS011;53211;45.040;38.788;2022-11-20T02:05:40;690.17;;;150.90;;
66400;SDS011;53211;45.040;38.788;2022-11-20T02:08:26;678.40;;;154.00;;
66400;SDS011;53211;45.040;38.788;2022-11-20T02:10:53;688.70;;;149.80;;
66400;SDS011;53211;45.040;38.788;2022-11-20T02:13:19;700.05;;;150.02;;
66400;SDS011;53211;45.040;38.788;2022-11-20T02:16:04;698.45;;;149.77;;
66400;SDS011;53211;45.040;38.788;2022-11-20T02:18:43;700.53;;;147.30;;
66400;SDS011;53211;45.040;38.788;2022-11-20T02:21:16;691.77;;;152.30;;
66400;SDS011;53211;45.040;38.788;2022-11-20T02:26:18;665.30;;;157.15;;
66400;SDS011;53211;45.040;38.788;2022-11-20T02:28:46;678.50;;;151.00;;
66400;SDS011;53211;45.040;38.788;2022-11-20T02:31:12;666.03;;;153.85;;
66400;SDS011;53211;45.040;38.788;2022-11-20T02:33:38;665.17;;;154.03;;
66400;SDS011;53211;45.040;38.788;2022-11-20T02:36:07;678.70;;;150.50;;
66400;SDS011;53211;45.040;38.788;2022-11-20T02:38:37;683.70;;;148.77;;
66400;SDS011;53211;45.040;38.788;2022-11-20T02:41:03;669.10;;;153.45;;
66400;SDS011;53211;45.040;38.788;2022-11-20T02:43:29;687.75;;;149.65;;
66400;SDS011;53211;45.040;38.788;2022-11-20T02:45:55;655.47;;;154.83;;
66400;SDS011;53211;45.040;38.788;2022-11-20T02:48:21;682.65;;;149.52;;
66400;SDS011;53211;45.040;38.788;2022-11-20T02:50:47;663.40;;;153.83;;
66400;SDS011;53211;45.040;38.788;2022-11-20T02:53:13;663.67;;;152.43;;
66400;SDS011;53211;45.040;38.788;2022-11-20T02:55:39;670.50;;;152.75;;
66400;SDS011;53211;45.040;38.788;2022-11-20T02:58:05;655.85;;;156.20;;
66400;SDS011;53211;45.040;38.788;2022-11-20T03:00:31;687.60;;;147.30;;
66400;SDS011;53211;45.040;38.788;2022-11-20T03:02:57;650.88;;;155.60;;
66400;SDS011;53211;45.040;38.788;2022-11-20T03:05:23;646.80;;;157.80;;
66400;SDS011;53211;45.040;38.788;2022-11-20T03:07:49;644.40;;;159.70;;
66400;SDS011;53211;45.040;38.788;2022-11-20T03:10:15;639.30;;;160.00;;
66400;SDS011;53211;45.040;38.788;2022-11-20T03:12:41;644.83;;;155.23;;
66400;SDS011;53211;45.040;38.788;2022-11-20T03:15:07;637.58;;;157.77;;
66400;SDS011;53211;45.040;38.788;2022-11-20T03:17:33;680.90;;;151.30;;
66400;SDS011;53211;45.040;38.788;2022-11-20T03:20:00;686.70;;;149.35;;
66400;SDS011;53211;45.040;38.788;2022-11-20T03:22:28;685.10;;;149.20;;
66400;SDS011;53211;45.040;38.788;2022-11-20T03:24:55;679.15;;;150.60;;
66400;SDS011;53211;45.040;38.788;2022-11-20T03:27:21;685.15;;;150.45;;
66400;SDS011;53211;45.040;38.788;2022-11-20T03:29:47;682.58;;;150.30;;
66400;SDS011;53211;45.040;38.788;2022-11-20T03:32:13;680.00;;;150.30;;
66400;SDS011;53211;45.040;38.788;2022-11-20T03:34:39;692.00;;;151.05;;
66400;SDS011;53211;45.040;38.788;2022-11-20T03:37:05;677.45;;;152.40;;
66400;SDS011;53211;45.040;38.788;2022-11-20T03:39:31;679.20;;;151.50;;
66400;SDS011;53211;45.040;38.788;2022-11-20T03:41:57;679.73;;;151.83;;
66400;SDS011;53211;45.040;38.788;2022-11-20T03:44:23;676.10;;;153.70;;
66400;SDS011;53211;45.040;38.788;2022-11-20T03:46:49;658.40;;;157.60;;
66400;SDS011;53211;45.040;38.788;2022-11-20T03:49:15;644.05;;;162.35;;
66400;SDS011;53211;45.040;38.788;2022-11-20T03:51:41;666.45;;;153.65;;
66400;SDS011;53211;45.040;38.788;2022-11-20T03:54:07;678.05;;;153.30;;
66400;SDS011;53211;45.040;38.788;2022-11-20T03:56:35;684.80;;;148.35;;
66400;SDS011;53211;45.040;38.788;2022-11-20T03:59:02;708.13;;;150.97;;
66400;SDS011;53211;45.040;38.788;2022-11-20T04:01:30;681.25;;;152.00;;
66400;SDS011;53211;45.040;38.788;2022-11-20T04:04:00;705.20;;;149.40;;
66400;SDS011;53211;45.040;38.788;2022-11-20T04:06:28;698.50;;;150.45;;
66400;SDS011;53211;45.040;38.788;2022-11-20T04:08:56;700.73;;;146.40;;
66400;SDS011;53211;45.040;38.788;2022-11-20T04:11:24;697.90;;;148.32;;
66400;SDS011;53211;45.040;38.788;2022-11-20T04:13:53;689.35;;;149.45;;
66400;SDS011;53211;45.040;38.788;2022-11-20T04:16:21;669.10;;;152.90;;
66400;SDS011;53211;45.040;38.788;2022-11-20T04:18:52;666.50;;;153.15;;
66400;SDS011;53211;45.040;38.788;2022-11-20T04:21:23;664.53;;;153.60;;
66400;SDS011;53211;45.040;38.788;2022-11-20T04:23:50;670.70;;;153.10;;
66400;SDS011;53211;45.040;38.788;2022-11-20T04:26:16;664.20;;;151.90;;
66400;SDS011;53211;45.040;38.788;2022-11-20T04:28:42;658.10;;;158.10;;
66400;SDS011;53211;45.040;38.788;2022-11-20T04:31:12;693.35;;;147.32;;
66400;SDS011;53211;45.040;38.788;2022-11-20T04:33:42;705.90;;;145.75;;
66400;SDS011;53211;45.040;38.788;2022-11-20T04:36:13;662.80;;;150.50;;
66400;SDS011;53211;45.040;38.788;2022-11-20T04:38:40;661.75;;;154.25;;
66400;SDS011;53211;45.040;38.788;2022-11-20T04:41:07;672.55;;;152.20;;
66400;SDS011;53211;45.040;38.788;2022-11-20T04:43:37;657.57;;;154.30;;
66400;SDS011;53211;45.040;38.788;2022-11-20T04:46:03;651.77;;;154.60;;
66400;SDS011;53211;45.040;38.788;2022-11-20T04:48:29;662.35;;;153.20;;
66400;SDS011;53211;45.040;38.788;2022-11-20T04:50:56;654.10;;;154.60;;
66400;SDS011;53211;45.040;38.788;2022-11-20T04:53:22;670.10;;;151.30;;
66400;SDS011;53211;45.040;38.788;2022-11-20T04:55:49;691.35;;;147.40;;
66400;SDS011;53211;45.040;38.788;2022-11-20T04:58:15;661.85;;;155.55;;
66400;SDS011;53211;45.040;38.788;2022-11-20T05:00:41;663.70;;;154.30;;
66400;SDS011;53211;45.040;38.788;2022-11-20T05:03:07;666.87;;;152.23;;
66400;SDS011;53211;45.040;38.788;2022-11-20T05:05:34;656.95;;;156.25;;
66400;SDS011;53211;45.040;38.788;2022-11-20T05:08:00;651.45;;;155.30;;
66400;SDS011;53211;45.040;38.788;2022-11-20T05:10:26;656.20;;;156.80;;
66400;SDS011;53211;45.040;38.788;2022-11-20T05:12:52;651.10;;;157.30;;
66400;SDS011;53211;45.040;38.788;2022-11-20T05:15:18;652.40;;;156.50;;
66400;SDS011;53211;45.040;38.788;2022-11-20T05:17:48;653.93;;;154.70;;
66400;SDS011;53211;45.040;38.788;2022-11-20T05:20:16;652.70;;;157.10;;
66400;SDS011;53211;45.040;38.788;2022-11-20T05:22:43;678.78;;;153.38;;
66400;SDS011;53211;45.040;38.788;2022-11-20T05:25:10;681.53;;;152.30;;
66400;SDS011;53211;45.040;38.788;2022-11-20T05:27:36;655.50;;;157.80;;
66400;SDS011;53211;45.040;38.788;2022-11-20T05:30:03;655.17;;;160.37;;
66400;SDS011;53211;45.040;38.788;2022-11-20T05:32:29;655.60;;;160.40;;
66400;SDS011;53211;45.040;38.788;2022-11-20T05:34:55;657.70;;;162.20;;
66400;SDS011;53211;45.040;38.788;2022-11-20T05:37:21;661.37;;;157.37;;
66400;SDS011;53211;45.040;38.788;2022-11-20T05:39:47;668.50;;;157.05;;
66400;SDS011;53211;45.040;38.788;2022-11-20T05:42:13;663.10;;;157.77;;
66400;SDS011;53211;45.040;38.788;2022-11-20T05:44:57;665.03;;;158.27;;
66400;SDS011;53211;45.040;38.788;2022-11-20T05:47:28;690.40;;;150.30;;
66400;SDS011;53211;45.040;38.788;2022-11-20T05:50:01;680.35;;;155.25;;
66400;SDS011;53211;45.040;38.788;2022-11-20T05:52:30;681.95;;;155.80;;
66400;SDS011;53211;45.040;38.788;2022-11-20T05:54:56;675.45;;;153.80;;
66400;SDS011;53211;45.040;38.788;2022-11-20T05:57:22;724.27;;;149.23;;
66400;SDS011;53211;45.040;38.788;2022-11-20T05:59:48;676.10;;;153.10;;
66400;SDS011;53211;45.040;38.788;2022-11-20T06:02:14;714.33;;;150.80;;
66400;SDS011;53211;45.040;38.788;2022-11-20T06:04:40;692.17;;;154.48;;
66400;SDS011;53211;45.040;38.788;2022-11-20T06:07:06;696.30;;;152.50;;
66400;SDS011;53211;45.040;38.788;2022-11-20T06:09:33;694.40;;;149.90;;
66400;SDS011;53211;45.040;38.788;2022-11-20T06:12:00;711.70;;;150.30;;
66400;SDS011;53211;45.040;38.788;2022-11-20T06:14:28;715.13;;;151.90;;
66400;SDS011;53211;45.040;38.788;2022-11-20T06:16:54;722.30;;;151.03;;
66400;SDS011;53211;45.040;38.788;2022-11-20T06:19:20;702.35;;;150.75;;
66400;SDS011;53211;45.040;38.788;2022-11-20T06:21:47;715.55;;;150.85;;
66400;SDS011;53211;45.040;38.788;2022-11-20T06:24:14;707.97;;;150.67;;
66400;SDS011;53211;45.040;38.788;2022-11-20T06:26:41;717.40;;;152.07;;
66400;SDS011;53211;45.040;38.788;2022-11-20T06:29:07;690.60;;;154.30;;
66400;SDS011;53211;45.040;38.788;2022-11-20T06:31:33;670.55;;;161.75;;
66400;SDS011;53211;45.040;38.788;2022-11-20T06:34:06;683.65;;;159.35;;
66400;SDS011;53211;45.040;38.788;2022-11-20T06:36:32;685.65;;;156.15;;
66400;SDS011;53211;45.040;38.788;2022-11-20T06:38:59;685.00;;;156.40;;
66400;SDS011;53211;45.040;38.788;2022-11-20T06:41:25;703.80;;;152.50;;
66400;SDS011;53211;45.040;38.788;2022-11-20T06:43:51;707.80;;;152.63;;
66400;SDS011;53211;45.040;38.788;2022-11-20T06:46:18;704.00;;;153.30;;
66400;SDS011;53211;45.040;38.788;2022-11-20T06:48:45;705.75;;;150.30;;
66400;SDS011;53211;45.040;38.788;2022-11-20T06:51:12;700.50;;;154.20;;
66400;SDS011;53211;45.040;38.788;2022-11-20T06:53:38;689.15;;;155.85;;
66400;SDS011;53211;45.040;38.788;2022-11-20T06:56:05;713.50;;;158.03;;
66400;SDS011;53211;45.040;38.788;2022-11-20T06:58:32;718.40;;;149.80;;
66400;SDS011;53211;45.040;38.788;2022-11-20T07:00:59;733.42;;;149.10;;
66400;SDS011;53211;45.040;38.788;2022-11-20T07:03:30;701.30;;;153.55;;
66400;SDS011;53211;45.040;38.788;2022-11-20T07:05:57;690.25;;;159.05;;
66400;SDS011;53211;45.040;38.788;2022-11-20T07:08:25;691.70;;;158.30;;
66400;SDS011;53211;45.040;38.788;2022-11-20T07:10:51;717.80;;;151.80;;
66400;SDS011;53211;45.040;38.788;2022-11-20T07:13:17;710.47;;;151.97;;
66400;SDS011;53211;45.040;38.788;2022-11-20T07:15:43;725.97;;;147.77;;
66400;SDS011;53211;45.040;38.788;2022-11-20T07:18:09;713.88;;;152.23;;
66400;SDS011;53211;45.040;38.788;2022-11-20T07:20:35;724.90;;;150.50;;
66400;SDS011;53211;45.040;38.788;2022-11-20T07:23:01;713.67;;;152.80;;
66400;SDS011;53211;45.040;38.788;2022-11-20T07:25:27;695.95;;;155.40;;
66400;SDS011;53211;45.040;38.788;2022-11-20T07:27:57;704.85;;;156.75;;
66400;SDS011;53211;45.040;38.788;2022-11-20T07:30:24;702.33;;;157.68;;
66400;SDS011;53211;45.040;38.788;2022-11-20T07:32:53;690.70;;;161.65;;
66400;SDS011;53211;45.040;38.788;2022-11-20T07:35:20;690.28;;;160.07;;
66400;SDS011;53211;45.040;38.788;2022-11-20T07:37:46;688.80;;;157.50;;
66400;SDS011;53211;45.040;38.788;2022-11-20T07:40:14;702.85;;;156.35;;
66400;SDS011;53211;45.040;38.788;2022-11-20T07:42:47;704.40;;;156.20;;
66400;SDS011;53211;45.040;38.788;2022-11-20T07:45:17;708.60;;;155.25;;
66400;SDS011;53211;45.040;38.788;2022-11-20T07:47:44;709.83;;;156.37;;
66400;SDS011;53211;45.040;38.788;2022-11-20T07:50:10;707.43;;;154.10;;
66400;SDS011;53211;45.040;38.788;2022-11-20T07:52:37;705.50;;;153.90;;
66400;SDS011;53211;45.040;38.788;2022-11-20T07:55:03;709.10;;;153.35;;
66400;SDS011;53211;45.040;38.788;2022-11-20T07:57:30;722.35;;;152.20;;
66400;SDS011;53211;45.040;38.788;2022-11-20T07:59:56;708.23;;;150.73;;
66400;SDS011;53211;45.040;38.788;2022-11-20T08:02:22;752.50;;;145.80;;
66400;SDS011;53211;45.040;38.788;2022-11-20T08:04:48;720.10;;;154.30;;
66400;SDS011;53211;45.040;38.788;2022-11-20T08:07:14;722.93;;;151.67;;
66400;SDS011;53211;45.040;38.788;2022-11-20T08:09:40;729.65;;;151.50;;
66400;SDS011;53211;45.040;38.788;2022-11-20T08:12:06;727.57;;;151.50;;
66400;SDS011;53211;45.040;38.788;2022-11-20T08:14:51;726.87;;;152.37;;
66400;SDS011;53211;45.040;38.788;2022-11-20T08:17:17;731.45;;;152.20;;
66400;SDS011;53211;45.040;38.788;2022-11-20T08:19:43;710.17;;;155.88;;
66400;SDS011;53211;45.040;38.788;2022-11-20T08:22:09;706.87;;;153.73;;
66400;SDS011;53211;45.040;38.788;2022-11-20T08:24:35;713.65;;;154.05;;
66400;SDS011;53211;45.040;38.788;2022-11-20T08:27:01;720.30;;;155.40;;
66400;SDS011;53211;45.040;38.788;2022-11-20T08:29:27;718.97;;;152.65;;
66400;SDS011;53211;45.040;38.788;2022-11-20T08:31:53;722.90;;;153.40;;
66400;SDS011;53211;45.040;38.788;2022-11-20T08:34:19;726.92;;;153.23;;
66400;SDS011;53211;45.040;38.788;2022-11-20T08:36:45;712.90;;;155.35;;
66400;SDS011;53211;45.040;38.788;2022-11-20T08:39:11;724.50;;;155.20;;
66400;SDS011;53211;45.040;38.788;2022-11-20T08:41:38;719.60;;;152.63;;
66400;SDS011;53211;45.040;38.788;2022-11-20T08:44:05;725.23;;;154.03;;
66400;SDS011;53211;45.040;38.788;2022-11-20T08:46:33;726.40;;;153.40;;
66400;SDS011;53211;45.040;38.788;2022-11-20T08:49:02;728.55;;;155.63;;
66400;SDS011;53211;45.040;38.788;2022-11-20T08:51:32;722.55;;;150.65;;
66400;SDS011;53211;45.040;38.788;2022-11-20T08:53:58;748.60;;;150.05;;
66400;SDS011;53211;45.040;38.788;2022-11-20T08:56:24;744.70;;;152.20;;
66400;SDS011;53211;45.040;38.788;2022-11-20T08:58:50;735.30;;;160.40;;
66400;SDS011;53211;45.040;38.788;2022-11-20T09:01:18;735.65;;;152.65;;
66400;SDS011;53211;45.040;38.788;2022-11-20T09:03:45;757.30;;;149.10;;
66400;SDS011;53211;45.040;38.788;2022-11-20T09:06:11;724.83;;;153.67;;
66400;SDS011;53211;45.040;38.788;2022-11-20T09:08:38;718.10;;;151.90;;
66400;SDS011;53211;45.040;38.788;2022-11-20T09:11:05;767.25;;;148.80;;
66400;SDS011;53211;45.040;38.788;2022-11-20T09:13:31;749.30;;;149.30;;
66400;SDS011;53211;45.040;38.788;2022-11-20T09:15:59;739.90;;;151.90;;
66400;SDS011;53211;45.040;38.788;2022-11-20T09:18:31;750.05;;;152.20;;
66400;SDS011;53211;45.040;38.788;2022-11-20T09:20:58;648.40;;;208.85;;
66400;SDS011;53211;45.040;38.788;2022-11-20T09:23:25;700.60;;;169.70;;
66400;SDS011;53211;45.040;38.788;2022-11-20T09:25:52;671.45;;;186.60;;
66400;SDS011;53211;45.040;38.788;2022-11-20T09:28:20;702.30;;;169.80;;
66400;SDS011;53211;45.040;38.788;2022-11-20T09:30:46;686.25;;;176.15;;
66400;SDS011;53211;45.040;38.788;2022-11-20T09:33:12;721.00;;;164.60;;
66400;SDS011;53211;45.040;38.788;2022-11-20T09:35:38;697.60;;;173.55;;
66400;SDS011;53211;45.040;38.788;2022-11-20T09:38:08;742.10;;;155.90;;
66400;SDS011;53211;45.040;38.788;2022-11-20T09:40:37;735.80;;;157.87;;
66400;SDS011;53211;45.040;38.788;2022-11-20T09:46:14;728.40;;;162.07;;
66400;SDS011;53211;45.040;38.788;2022-11-20T09:48:52;691.37;;;178.00;;
66400;SDS011;53211;45.040;38.788;2022-11-20T09:51:35;671.20;;;187.75;;
66400;SDS011;53211;45.040;38.788;2022-11-20T09:54:19;713.00;;;171.65;;
66400;SDS011;53211;45.040;38.788;2022-11-20T09:57:21;685.25;;;180.30;;
66400;SDS011;53211;45.040;38.788;2022-11-20T09:59:43;710.35;;;166.20;;
66400;SDS011;53211;45.040;38.788;2022-11-20T10:02:19;725.03;;;164.20;;
66400;SDS011;53211;45.040;38.788;2022-11-20T10:10:16;698.42;;;173.13;;
66400;SDS011;53211;45.040;38.788;2022-11-20T10:31:14;660.50;;;194.50;;
66400;SDS011;53211;45.040;38.788;2022-11-20T10:33:52;681.97;;;180.87;;
66400;SDS011;53211;45.040;38.788;2022-11-20T10:36:26;649.10;;;204.80;;
66400;SDS011;53211;45.040;38.788;2022-11-20T10:38:56;649.95;;;204.05;;
66400;SDS011;53211;45.040;38.788;2022-11-20T10:41:32;664.70;;;193.05;;
66400;SDS011;53211;45.040;38.788;2022-11-20T10:44:20;677.20;;;185.45;;
66400;SDS011;53211;45.040;38.788;2022-11-20T10:47:11;662.50;;;199.20;;
66400;SDS011;53211;45.040;38.788;2022-11-20T10:49:46;677.40;;;187.95;;
66400;SDS011;53211;45.040;38.788;2022-11-20T11:00:45;749.40;;;153.50;;
66400;SDS011;53211;45.040;38.788;2022-11-20T11:08:38;744.95;;;154.95;;
66400;SDS011;53211;45.040;38.788;2022-11-20T11:11:24;758.30;;;156.10;;
66400;SDS011;53211;45.040;38.788;2022-11-20T11:14:05;753.67;;;160.07;;
66400;SDS011;53211;45.040;38.788;2022-11-20T11:16:33;729.10;;;166.20;;
66400;SDS011;53211;45.040;38.788;2022-11-20T11:19:12;726.90;;;161.90;;
66400;SDS011;53211;45.040;38.788;2022-11-20T11:21:44;764.55;;;153.50;;
66400;SDS011;53211;45.040;38.788;2022-11-20T11:24:19;774.50;;;152.50;;
66400;SDS011;53211;45.040;38.788;2022-11-20T11:26:55;770.63;;;151.57;;
66400;SDS011;53211;45.040;38.788;2022-11-20T11:29:24;769.05;;;152.25;;
66400;SDS011;53211;45.040;38.788;2022-11-20T11:32:03;757.33;;;155.25;;
66400;SDS011;53211;45.040;38.788;2022-11-20T11:34:33;757.97;;;154.50;;
66400;SDS011;53211;45.040;38.788;2022-11-20T11:36:59;761.77;;;156.57;;
66400;SDS011;53211;45.040;38.788;2022-11-20T11:39:29;767.03;;;153.57;;
66400;SDS011;53211;45.040;38.788;2022-11-20T11:41:56;768.60;;;152.45;;
66400;SDS011;53211;45.040;38.788;2022-11-20T11:44:28;738.20;;;160.93;;
66400;SDS011;53211;45.040;38.788;2022-11-20T11:47:25;750.50;;;155.70;;
66400;SDS011;53211;45.040;38.788;2022-11-20T11:52:41;691.70;;;172.05;;
66400;SDS011;53211;45.040;38.788;2022-11-20T11:55:29;707.47;;;173.47;;
66400;SDS011;53211;45.040;38.788;2022-11-20T12:01:03;709.30;;;171.98;;
66400;SDS011;53211;45.040;38.788;2022-11-20T12:04:15;689.03;;;181.70;;
66400;SDS011;53211;45.040;38.788;2022-11-20T12:06:42;721.35;;;165.73;;
66400;SDS011;53211;45.040;38.788;2022-11-20T12:09:11;712.07;;;170.87;;
66400;SDS011;53211;45.040;38.788;2022-11-20T12:11:40;719.10;;;166.30;;
66400;SDS011;53211;45.040;38.788;2022-11-20T12:14:17;708.03;;;168.30;;
66400;SDS011;53211;45.040;38.788;2022-11-20T12:16:49;716.40;;;167.00;;
66400;SDS011;53211;45.040;38.788;2022-11-20T12:19:18;729.15;;;163.00;;
66400;SDS011;53211;45.040;38.788;2022-11-20T12:24:52;718.45;;;163.00;;
66400;SDS011;53211;45.040;38.788;2022-11-20T12:27:27;713.83;;;169.23;;
66400;SDS011;53211;45.040;38.788;2022-11-20T12:30:10;722.70;;;164.68;;
66400;SDS011;53211;45.040;38.788;2022-11-20T12:40:44;755.87;;;154.53;;
66400;SDS011;53211;45.040;38.788;2022-11-20T12:43:24;769.55;;;154.70;;
66400;SDS011;53211;45.040;38.788;2022-11-20T12:46:22;745.10;;;158.70;;
66400;SDS011;53211;45.040;38.788;2022-11-20T12:55:09;716.95;;;166.95;;
66400;SDS011;53211;45.040;38.788;2022-11-20T13:00:29;734.63;;;163.90;;
66400;SDS011;53211;45.040;38.788;2022-11-20T13:08:28;740.27;;;164.60;;
66400;SDS011;53211;45.040;38.788;2022-11-20T13:19:25;724.40;;;172.97;;
66400;SDS011;53211;45.040;38.788;2022-11-20T13:21:53;752.60;;;156.13;;
66400;SDS011;53211;45.040;38.788;2022-11-20T13:29:26;774.30;;;152.90;;
66400;SDS011;53211;45.040;38.788;2022-11-20T13:32:00;763.20;;;157.13;;
66400;SDS011;53211;45.040;38.788;2022-11-20T13:34:32;753.00;;;157.65;;
66400;SDS011;53211;45.040;38.788;2022-11-20T13:36:58;738.07;;;166.67;;
66400;SDS011;53211;45.040;38.788;2022-11-20T13:39:32;718.47;;;181.23;;
66400;SDS011;53211;45.040;38.788;2022-11-20T13:44:42;726.60;;;169.20;;
66400;SDS011;53211;45.040;38.788;2022-11-20T13:47:46;723.10;;;167.30;;
66400;SDS011;53211;45.040;38.788;2022-11-20T13:50:13;752.50;;;160.60;;
66400;SDS011;53211;45.040;38.788;2022-11-20T13:55:41;748.72;;;162.15;;
66400;SDS011;53211;45.040;38.788;2022-11-20T14:00:58;711.30;;;184.90;;
66400;SDS011;53211;45.040;38.788;2022-11-20T14:03:33;714.00;;;177.30;;
66400;SDS011;53211;45.040;38.788;2022-11-20T14:06:04;735.20;;;166.45;;
66400;SDS011;53211;45.040;38.788;2022-11-20T14:08:37;743.50;;;161.02;;
66400;SDS011;53211;45.040;38.788;2022-11-20T14:11:14;735.70;;;164.40;;
66400;SDS011;53211;45.040;38.788;2022-11-20T14:14:10;730.85;;;166.90;;
66400;SDS011;53211;45.040;38.788;2022-11-20T14:16:40;725.80;;;167.00;;
66400;SDS011;53211;45.040;38.788;2022-11-20T14:19:26;752.15;;;159.50;;
66400;SDS011;53211;45.040;38.788;2022-11-20T14:22:07;774.85;;;154.35;;
66400;SDS011;53211;45.040;38.788;2022-11-20T14:24:48;749.03;;;159.43;;
66400;SDS011;53211;45.040;38.788;2022-11-20T14:27:25;731.00;;;164.80;;
66400;SDS011;53211;45.040;38.788;2022-11-20T14:29:51;746.67;;;163.02;;
66400;SDS011;53211;45.040;38.788;2022-11-20T14:32:18;734.95;;;161.80;;
66400;SDS011;53211;45.040;38.788;2022-11-20T14:34:57;747.20;;;162.10;;
66400;SDS011;53211;45.040;38.788;2022-11-20T14:37:28;726.28;;;164.23;;
66400;SDS011;53211;45.040;38.788;2022-11-20T14:39:58;741.60;;;159.30;;
66400;SDS011;53211;45.040;38.788;2022-11-20T14:42:26;744.45;;;158.90;;
66400;SDS011;53211;45.040;38.788;2022-11-20T14:44:59;736.53;;;162.38;;
66400;SDS011;53211;45.040;38.788;2022-11-20T14:47:28;758.30;;;154.90;;
66400;SDS011;53211;45.040;38.788;2022-11-20T14:49:56;759.25;;;154.80;;
66400;SDS011;53211;45.040;38.788;2022-11-20T14:52:24;752.53;;;157.73;;
66400;SDS011;53211;45.040;38.788;2022-11-20T14:54:53;754.23;;;157.27;;
66400;SDS011;53211;45.040;38.788;2022-11-20T14:57:22;752.05;;;156.40;;
66400;SDS011;53211;45.040;38.788;2022-11-20T15:00:18;753.17;;;156.57;;
66400;SDS011;53211;45.040;38.788;2022-11-20T15:02:46;745.50;;;155.80;;
66400;SDS011;53211;45.040;38.788;2022-11-20T15:05:14;756.40;;;155.00;;
66400;SDS011;53211;45.040;38.788;2022-11-20T15:07:43;752.72;;;155.23;;
66400;SDS011;53211;45.040;38.788;2022-11-20T15:12:51;774.30;;;153.10;;
66400;SDS011;53211;45.040;38.788;2022-11-20T15:15:23;772.20;;;152.35;;
66400;SDS011;53211;45.040;38.788;2022-11-20T15:17:55;765.75;;;154.50;;
66400;SDS011;53211;45.040;38.788;2022-11-20T15:20:21;755.78;;;153.68;;
66400;SDS011;53211;45.040;38.788;2022-11-20T15:22:51;762.80;;;153.85;;
66400;SDS011;53211;45.040;38.788;2022-11-20T15:25:17;768.65;;;153.65;;
66400;SDS011;53211;45.040;38.788;2022-11-20T15:27:44;756.20;;;153.80;;
66400;SDS011;53211;45.040;38.788;2022-11-20T15:30:15;755.25;;;155.10;;
66400;SDS011;53211;45.040;38.788;2022-11-20T15:32:45;759.90;;;155.00;;
66400;SDS011;53211;45.040;38.788;2022-11-20T15:35:12;742.33;;;158.97;;
66400;SDS011;53211;45.040;38.788;2022-11-20T15:37:39;775.40;;;151.10;;
66400;SDS011;53211;45.040;38.788;2022-11-20T15:40:06;742.65;;;154.90;;